createdAt,value
2022-08-30T00:01:36.762Z,10.97
2022-08-30T00:04:39.181Z,11.00
2022-08-30T00:07:41.481Z,11.10
2022-08-30T00:10:44.121Z,11.23
2022-08-30T00:13:46.609Z,11.32
2022-08-30T00:16:48.497Z,11.45
2022-08-30T00:19:50.758Z,11.67
2022-08-30T00:22:52.653Z,11.86
2022-08-30T00:25:54.562Z,12.02
2022-08-30T00:28:56.406Z,12.15
2022-08-30T00:31:58.241Z,12.29
2022-08-30T00:35:00.069Z,12.31
2022-08-30T00:38:02.640Z,12.05
2022-08-30T00:41:05.591Z,11.79
2022-08-30T00:44:08.121Z,11.61
2022-08-30T00:47:10.582Z,11.49
2022-08-30T00:50:15.447Z,11.42
2022-08-30T00:53:21.422Z,11.35
2022-08-30T00:56:25.322Z,11.29
2022-08-30T00:59:27.720Z,11.30
2022-08-30T01:02:31.395Z,11.31
2022-08-30T01:05:33.120Z,11.29
2022-08-30T01:08:35.357Z,11.24
2022-08-30T01:11:38.236Z,11.19
2022-08-30T01:14:40.115Z,11.18
2022-08-30T01:17:44.506Z,11.19
2022-08-30T01:21:10.446Z,11.20
2022-08-30T01:24:13.029Z,11.20
2022-08-30T01:27:16.286Z,11.16
2022-08-30T01:30:18.118Z,11.16
2022-08-30T01:33:20.534Z,11.14
2022-08-30T01:36:22.725Z,11.11
2022-08-30T01:39:25.223Z,11.11
2022-08-30T01:42:28.039Z,11.09
2022-08-30T01:45:29.911Z,11.04
2022-08-30T01:48:31.622Z,11.02
2022-08-30T01:51:33.661Z,11.00
2022-08-30T01:54:38.583Z,10.96
2022-08-30T01:57:41.428Z,10.89
2022-08-30T02:00:43.213Z,10.76
2022-08-30T02:03:45.839Z,10.61
2022-08-30T02:06:47.909Z,10.46
2022-08-30T02:09:50.320Z,10.41
2022-08-30T02:12:52.413Z,10.38
2022-08-30T02:15:57.379Z,10.38
2022-08-30T02:18:59.244Z,10.39
2022-08-30T02:22:00.970Z,10.40
2022-08-30T02:25:05.668Z,10.40
2022-08-30T02:28:12.505Z,10.42
2022-08-30T02:31:19.553Z,10.47
2022-08-30T02:34:22.928Z,10.48
2022-08-30T02:37:24.660Z,10.41
2022-08-30T02:40:26.703Z,10.40
2022-08-30T02:43:28.763Z,10.46
2022-08-30T02:46:33.136Z,10.49
2022-08-30T02:49:35.419Z,10.50
2022-08-30T02:52:38.258Z,10.52
2022-08-30T02:55:40.057Z,10.51
2022-08-30T02:58:43.111Z,10.50
2022-08-30T03:01:44.991Z,10.49
2022-08-30T03:04:46.834Z,10.45
2022-08-30T03:07:48.634Z,10.43
2022-08-30T03:10:51.424Z,10.43
2022-08-30T03:13:53.169Z,10.42
2022-08-30T03:16:55.603Z,10.39
2022-08-30T03:20:00.485Z,10.36
2022-08-30T03:23:02.397Z,10.31
2022-08-30T03:26:04.367Z,10.27
2022-08-30T03:29:06.338Z,10.26
2022-08-30T03:32:08.182Z,10.23
2022-08-30T03:35:10.360Z,10.19
2022-08-30T03:38:12.188Z,10.11
2022-08-30T03:41:14.166Z,10.02
2022-08-30T03:44:15.935Z,9.93
2022-08-30T03:47:17.765Z,9.85
2022-08-30T03:50:19.415Z,9.85
2022-08-30T03:53:21.335Z,9.91
2022-08-30T03:56:22.977Z,9.98
2022-08-30T03:59:25.170Z,10.01
2022-08-30T04:02:27.676Z,10.05
2022-08-30T04:05:29.455Z,10.11
2022-08-30T04:08:31.334Z,10.18
2022-08-30T04:11:33.445Z,10.06
2022-08-30T04:14:35.260Z,10.00
2022-08-30T04:17:37.240Z,10.05
2022-08-30T04:20:39.117Z,10.11
2022-08-30T04:23:40.830Z,10.22
2022-08-30T04:26:43.042Z,10.36
2022-08-30T04:29:44.679Z,10.56
2022-08-30T04:32:46.545Z,10.64
2022-08-30T04:35:49.638Z,10.59
2022-08-30T04:38:51.476Z,10.55
2022-08-30T04:41:53.470Z,10.58
2022-08-30T04:44:55.201Z,10.64
2022-08-30T04:47:57.304Z,10.74
2022-08-30T04:50:59.181Z,10.85
2022-08-30T04:54:00.950Z,10.95
2022-08-30T04:57:02.707Z,11.05
2022-08-30T05:00:11.731Z,11.16
2022-08-30T05:03:14.140Z,11.28
2022-08-30T05:06:16.673Z,11.41
2022-08-30T05:09:19.158Z,11.55
2022-08-30T05:12:20.926Z,11.72
2022-08-30T05:15:23.287Z,11.93
2022-08-30T05:18:25.167Z,12.39
2022-08-30T05:21:28.032Z,12.90
2022-08-30T05:24:29.875Z,13.31
2022-08-30T05:27:31.873Z,13.69
2022-08-30T05:30:35.546Z,14.08
2022-08-30T05:33:38.797Z,14.38
2022-08-30T05:36:40.930Z,14.69
2022-08-30T05:39:46.962Z,14.93
2022-08-30T05:42:53.955Z,15.18
2022-08-30T05:46:05.490Z,15.50
2022-08-30T05:49:07.908Z,15.79
2022-08-30T05:52:10.417Z,16.02
2022-08-30T05:55:13.134Z,16.33
2022-08-30T05:58:15.627Z,16.45
2022-08-30T06:01:21.815Z,16.58
2022-08-30T06:04:23.762Z,16.82
2022-08-30T06:07:25.472Z,17.07
2022-08-30T06:10:27.234Z,17.32
2022-08-30T06:13:29.249Z,17.57
2022-08-30T06:16:31.826Z,17.62
2022-08-30T06:19:33.869Z,17.64
2022-08-30T06:22:36.520Z,17.78
2022-08-30T06:25:41.233Z,18.02
2022-08-30T06:28:44.298Z,18.30
2022-08-30T06:31:46.488Z,18.21
2022-08-30T06:34:51.268Z,18.23
2022-08-30T06:37:56.488Z,18.37
2022-08-30T06:40:58.422Z,18.72
2022-08-30T06:44:02.153Z,19.14
2022-08-30T06:47:05.991Z,18.91
2022-08-30T06:50:11.936Z,18.65
2022-08-30T06:53:14.677Z,18.51
2022-08-30T06:56:17.710Z,18.94
2022-08-30T06:59:19.481Z,19.30
2022-08-30T07:02:21.356Z,19.84
2022-08-30T07:05:23.828Z,20.01
2022-08-30T07:08:26.048Z,20.00
2022-08-30T07:11:31.644Z,19.87
2022-08-30T07:14:33.402Z,20.08
2022-08-30T07:17:54.157Z,20.49
2022-08-30T07:20:57.415Z,21.10
2022-08-30T07:24:00.383Z,21.24
2022-08-30T07:27:02.150Z,21.44
2022-08-30T07:30:06.443Z,22.08
2022-08-30T07:33:11.502Z,22.84
2022-08-30T07:36:15.406Z,23.06
2022-08-30T07:39:17.407Z,23.76
2022-08-30T07:42:19.054Z,24.06
2022-08-30T07:45:20.877Z,24.32
2022-08-30T07:48:22.706Z,24.55
2022-08-30T07:51:25.984Z,24.83
2022-08-30T07:54:27.832Z,24.68
2022-08-30T07:57:33.688Z,24.63
2022-08-30T08:00:35.538Z,25.17
2022-08-30T08:03:39.971Z,25.08
2022-08-30T08:06:42.465Z,24.58
2022-08-30T08:09:44.638Z,24.00
2022-08-30T08:12:47.101Z,24.07
2022-08-30T08:15:49.215Z,24.30
2022-08-30T08:18:52.259Z,24.31
2022-08-30T08:22:20.999Z,24.05
2022-08-30T08:25:23.014Z,24.67
2022-08-30T08:28:25.531Z,25.38
2022-08-30T08:31:33.537Z,25.78
2022-08-30T08:34:36.454Z,25.76
2022-08-30T08:37:39.484Z,25.74
2022-08-30T08:41:07.107Z,26.07
2022-08-30T08:44:18.017Z,25.97
2022-08-30T08:47:29.803Z,25.86
2022-08-30T08:50:32.164Z,25.85
2022-08-30T08:53:46.248Z,26.07
2022-08-30T08:56:48.650Z,26.78
2022-08-30T08:59:54.311Z,26.54
2022-08-30T09:03:03.268Z,25.91
2022-08-30T09:06:18.871Z,25.53
2022-08-30T09:09:24.286Z,25.98
2022-08-30T09:12:27.325Z,25.84
2022-08-30T09:15:33.025Z,25.40
2022-08-30T09:18:45.602Z,24.93
2022-08-30T09:21:57.641Z,24.71
2022-08-30T09:25:01.390Z,24.63
2022-08-30T09:28:13.065Z,24.85
2022-08-30T09:31:24.557Z,25.55
2022-08-30T09:34:32.842Z,26.55
2022-08-30T09:37:38.982Z,26.58
2022-08-30T09:40:47.284Z,26.39
2022-08-30T09:44:06.858Z,25.55
2022-08-30T09:47:24.292Z,24.79
2022-08-30T09:50:28.070Z,24.66
2022-08-30T09:53:34.871Z,25.47
2022-08-30T09:57:01.196Z,26.25
2022-08-30T10:00:19.129Z,26.65
2022-08-30T10:03:36.179Z,26.38
2022-08-30T10:06:54.639Z,25.77
2022-08-30T10:10:23.405Z,25.46
2022-08-30T10:14:07.136Z,25.18
2022-08-30T10:17:19.804Z,25.01
2022-08-30T10:20:41.964Z,24.82
2022-08-30T10:23:53.993Z,24.58
2022-08-30T10:27:42.577Z,24.51
2022-08-30T10:30:49.829Z,24.30
2022-08-30T10:33:57.578Z,25.18
2022-08-30T10:37:10.514Z,26.35
2022-08-30T10:40:43.789Z,27.05
2022-08-30T10:44:04.448Z,27.99
2022-08-30T10:47:30.028Z,28.07
2022-08-30T10:50:39.094Z,27.97
2022-08-30T10:54:00.080Z,27.50
2022-08-30T10:57:01.791Z,26.87
2022-08-30T11:00:09.108Z,27.34
2022-08-30T11:03:36.387Z,27.91
2022-08-30T11:06:46.816Z,27.76
2022-08-30T11:10:03.612Z,27.71
2022-08-30T11:13:16.265Z,27.53
2022-08-30T11:16:20.323Z,27.33
2022-08-30T11:19:43.532Z,26.83
2022-08-30T11:23:25.599Z,26.44
2022-08-30T11:26:46.986Z,26.01
2022-08-30T11:29:49.089Z,25.77
2022-08-30T11:33:12.978Z,25.87
2022-08-30T11:36:46.006Z,26.30
2022-08-30T11:39:48.261Z,25.73
2022-08-30T11:42:52.773Z,25.20
2022-08-30T11:46:26.095Z,24.80
2022-08-30T11:49:50.118Z,24.59
2022-08-30T11:53:32.531Z,24.43
2022-08-30T11:56:45.930Z,24.35
2022-08-30T12:00:06.954Z,24.32
2022-08-30T12:03:14.796Z,24.81
2022-08-30T12:06:42.160Z,24.98
2022-08-30T12:09:45.367Z,25.24
2022-08-30T12:12:48.959Z,25.76
2022-08-30T12:15:57.808Z,26.67
2022-08-30T12:19:20.985Z,27.52
2022-08-30T12:22:22.941Z,27.83
2022-08-30T12:25:32.068Z,27.72
2022-08-30T12:28:33.897Z,27.26
2022-08-30T12:31:45.194Z,26.87
2022-08-30T12:34:49.864Z,26.65
2022-08-30T12:38:07.317Z,26.45
2022-08-30T12:41:18.721Z,26.85
2022-08-30T12:44:26.119Z,27.34
2022-08-30T12:47:51.205Z,27.72
2022-08-30T12:50:57.320Z,28.24
2022-08-30T12:54:05.304Z,28.56
2022-08-30T12:57:25.577Z,28.07
2022-08-30T13:00:35.400Z,27.60
2022-08-30T13:03:37.629Z,27.98
2022-08-30T13:06:56.439Z,28.31
2022-08-30T13:10:02.155Z,28.49
2022-08-30T13:13:06.200Z,28.82
2022-08-30T13:16:11.160Z,29.37
2022-08-30T13:19:35.961Z,29.74
2022-08-30T13:22:40.161Z,30.08
2022-08-30T13:25:41.996Z,30.49
2022-08-30T13:28:51.583Z,30.68
2022-08-30T13:31:53.794Z,30.11
2022-08-30T13:34:55.585Z,29.12
2022-08-30T13:37:58.150Z,28.36
2022-08-30T13:41:00.020Z,27.61
2022-08-30T13:44:13.516Z,26.90
2022-08-30T13:47:32.969Z,26.45
2022-08-30T13:50:35.395Z,26.19
2022-08-30T13:53:53.545Z,26.00
2022-08-30T13:56:56.270Z,25.87
2022-08-30T13:59:58.287Z,25.87
2022-08-30T14:03:02.215Z,25.69
2022-08-30T14:06:31.874Z,25.57
2022-08-30T14:09:27.652Z,25.53
2022-08-30T14:16:26.506Z,26.24
2022-08-30T14:19:15.481Z,26.68
2022-08-30T14:22:20.009Z,26.96
2022-08-30T14:25:21.915Z,26.49
2022-08-30T14:28:24.614Z,26.04
2022-08-30T14:31:26.595Z,25.91
2022-08-30T14:34:28.645Z,25.64
2022-08-30T14:37:30.596Z,25.40
2022-08-30T14:40:33.031Z,25.29
2022-08-30T14:43:34.866Z,25.23
2022-08-30T14:46:37.529Z,25.45
2022-08-30T14:49:39.562Z,25.80
2022-08-30T14:52:42.149Z,26.12
2022-08-30T14:55:47.314Z,26.49
2022-08-30T14:58:51.045Z,26.50
2022-08-30T15:01:53.079Z,26.21
2022-08-30T15:04:54.766Z,25.94
2022-08-30T15:07:56.748Z,25.64
2022-08-30T15:10:59.641Z,25.28
2022-08-30T15:14:01.944Z,24.88
2022-08-30T15:17:04.101Z,24.57
2022-08-30T15:20:10.307Z,24.32
2022-08-30T15:23:12.440Z,24.16
2022-08-30T15:26:19.755Z,24.04
2022-08-30T15:29:21.571Z,23.97
2022-08-30T15:32:23.947Z,24.07
2022-08-30T15:35:28.035Z,24.12
2022-08-30T15:38:29.863Z,24.00
2022-08-30T15:41:31.684Z,23.78
2022-08-30T15:44:34.517Z,23.52
2022-08-30T15:47:36.445Z,23.29
2022-08-30T15:50:38.348Z,23.15
2022-08-30T15:53:43.159Z,23.04
2022-08-30T15:56:45.646Z,22.96
2022-08-30T15:59:50.302Z,22.84
2022-08-30T16:02:53.177Z,22.70
2022-08-30T16:05:55.129Z,22.61
2022-08-30T16:08:57.624Z,22.62
2022-08-30T16:12:00.340Z,22.58
2022-08-30T16:15:02.718Z,22.61
2022-08-30T16:18:04.622Z,22.59
2022-08-30T16:21:21.096Z,22.52
2022-08-30T16:24:23.516Z,22.41
2022-08-30T16:27:25.235Z,22.31
2022-08-30T16:30:26.955Z,22.25
2022-08-30T16:33:30.481Z,22.19
2022-08-30T16:36:35.987Z,22.17
2022-08-30T16:39:37.821Z,22.16
2022-08-30T16:42:40.801Z,22.14
2022-08-30T16:45:43.488Z,22.04
2022-08-30T16:48:45.743Z,22.00
2022-08-30T16:51:47.574Z,22.02
2022-08-30T16:54:52.310Z,22.01
2022-08-30T16:57:54.198Z,21.97
2022-08-30T17:00:56.018Z,21.87
2022-08-30T17:03:58.036Z,21.75
2022-08-30T17:06:59.908Z,21.63
2022-08-30T17:10:03.879Z,21.52
2022-08-30T17:13:05.656Z,21.32
2022-08-30T17:16:08.164Z,21.10
2022-08-30T17:19:11.727Z,20.86
2022-08-30T17:22:14.050Z,20.62
2022-08-30T17:25:16.268Z,20.40
2022-08-30T17:28:18.351Z,20.19
2022-08-30T17:31:23.735Z,19.98
2022-08-30T17:34:27.499Z,19.77
2022-08-30T17:37:29.825Z,19.58
2022-08-30T17:40:31.826Z,19.38
2022-08-30T17:43:35.377Z,19.19
2022-08-30T17:46:37.469Z,19.07
2022-08-30T17:49:39.476Z,19.01
2022-08-30T17:52:42.232Z,18.94
2022-08-30T17:55:49.152Z,18.90
2022-08-30T17:58:50.931Z,18.89
2022-08-30T18:01:55.149Z,18.88
2022-08-30T18:04:59.162Z,18.87
2022-08-30T18:08:01.209Z,18.87
2022-08-30T18:11:06.050Z,18.87
2022-08-30T18:14:11.028Z,18.84
2022-08-30T18:17:13.316Z,18.75
2022-08-30T18:20:16.440Z,18.68
2022-08-30T18:23:18.668Z,18.61
2022-08-30T18:26:27.766Z,18.52
2022-08-30T18:29:31.548Z,18.42
2022-08-30T18:32:36.017Z,18.35
2022-08-30T18:35:45.348Z,18.27
2022-08-30T18:38:49.761Z,18.19
2022-08-30T18:45:15.073Z,18.07
2022-08-30T18:48:17.445Z,18.04
2022-08-30T18:51:21.215Z,17.99
2022-08-30T18:54:23.653Z,17.94
2022-08-30T18:57:25.421Z,17.88
2022-08-30T19:00:27.404Z,17.82
2022-08-30T19:03:32.977Z,17.77
2022-08-30T19:06:36.045Z,17.71
2022-08-30T19:09:40.144Z,17.67
2022-08-30T19:12:41.983Z,17.63
2022-08-30T19:15:43.794Z,17.60
2022-08-30T19:18:46.241Z,17.58
2022-08-30T19:21:49.361Z,17.55
2022-08-30T19:24:51.824Z,17.52
2022-08-30T19:27:53.705Z,17.50
2022-08-30T19:30:55.408Z,17.47
2022-08-30T19:33:57.283Z,17.42
2022-08-30T19:36:59.102Z,17.36
2022-08-30T19:40:01.224Z,17.29
2022-08-30T19:43:04.654Z,17.22
2022-08-30T19:46:07.367Z,17.17
2022-08-30T19:49:11.295Z,17.12
2022-08-30T19:52:13.308Z,17.06
2022-08-30T19:55:15.537Z,17.00
2022-08-30T19:58:18.233Z,16.93
2022-08-30T20:01:32.731Z,16.89
2022-08-30T20:04:35.674Z,16.81
2022-08-30T20:07:37.845Z,16.74
2022-08-30T20:10:42.913Z,16.68
2022-08-30T20:13:44.803Z,16.61
2022-08-30T20:16:47.581Z,16.55
2022-08-30T20:19:49.302Z,16.48
2022-08-30T20:22:54.173Z,16.38
2022-08-30T20:24:28.550Z,18.13
2022-08-30T20:25:57.371Z,16.30
2022-08-30T20:29:00.159Z,16.21
2022-08-30T20:32:03.330Z,16.04
2022-08-30T20:35:06.878Z,15.82
2022-08-30T20:38:08.614Z,15.66
2022-08-30T20:41:12.583Z,15.58
2022-08-30T20:44:15.141Z,15.52
2022-08-30T20:47:17.502Z,15.45
2022-08-30T20:50:19.498Z,15.36
2022-08-30T20:53:21.216Z,15.23
2022-08-30T20:56:23.239Z,15.05
2022-08-30T20:59:24.972Z,14.94
2022-08-30T21:02:26.996Z,14.88
2022-08-30T21:05:28.978Z,14.84
2022-08-30T21:08:30.770Z,14.80
2022-08-30T21:11:34.559Z,14.76
2022-08-30T21:14:36.331Z,14.80
2022-08-30T21:17:38.057Z,14.86
2022-08-30T21:20:42.347Z,14.88
2022-08-30T21:23:44.386Z,14.82
2022-08-30T21:26:46.374Z,14.64
2022-08-30T21:29:48.880Z,14.50
2022-08-30T21:32:50.694Z,14.42
2022-08-30T21:36:11.062Z,14.37
2022-08-30T21:39:29.728Z,14.34
2022-08-30T21:42:32.304Z,14.33
2022-08-30T21:45:39.003Z,14.33
2022-08-30T21:48:40.785Z,14.31
2022-08-30T21:51:44.891Z,14.29
2022-08-30T21:54:46.853Z,14.29
2022-08-30T21:57:48.716Z,14.28
2022-08-30T22:00:50.557Z,14.24
2022-08-30T22:03:54.416Z,14.19
2022-08-30T22:06:56.417Z,14.10
2022-08-30T22:09:58.679Z,13.98
2022-08-30T22:13:00.777Z,13.88
2022-08-30T22:16:03.058Z,13.82
2022-08-30T22:19:04.860Z,13.76
2022-08-30T22:22:07.058Z,13.72
2022-08-30T22:25:09.310Z,13.64
2022-08-30T22:28:11.193Z,13.55
2022-08-30T22:31:15.447Z,13.53
2022-08-30T22:34:17.867Z,13.50
2022-08-30T22:37:19.615Z,13.43
2022-08-30T22:40:21.589Z,13.38
2022-08-30T22:43:23.470Z,13.35
2022-08-30T22:46:34.341Z,13.30
2022-08-30T22:49:36.564Z,13.27
2022-08-30T22:52:38.879Z,13.23
2022-08-30T22:55:41.369Z,13.22
2022-08-30T22:58:44.245Z,13.20
2022-08-30T23:01:47.258Z,13.19
2022-08-30T23:05:09.275Z,13.08
2022-08-30T23:08:11.266Z,12.85
2022-08-30T23:11:13.624Z,12.73
2022-08-30T23:14:15.478Z,12.71
2022-08-30T23:17:17.204Z,12.67
2022-08-30T23:20:19.128Z,12.59
2022-08-30T23:23:39.663Z,12.45
2022-08-30T23:27:01.852Z,12.43
2022-08-30T23:30:25.387Z,12.43
2022-08-30T23:33:46.025Z,12.41
2022-08-30T23:37:06.542Z,12.41
2022-08-30T23:40:27.850Z,12.41
2022-08-30T23:43:48.418Z,12.37
2022-08-30T23:47:08.870Z,12.34
2022-08-30T23:50:29.317Z,12.36
2022-08-30T23:53:49.665Z,12.31
2022-08-30T23:57:10.520Z,12.25
